sensor_id;sensor_type;location;lat;lon;timestamp;P1;durP1;ratioP1;P2;durP2;ratioP2
10142;SDS011;5112;54.088;13.446;2024-03-02T00:00:58;46.43;;;30.03;;
10142;SDS011;5112;54.088;13.446;2024-03-02T00:11:00;45.70;;;30.37;;
10142;SDS011;5112;54.088;13.446;2024-03-02T00:21:04;45.97;;;31.10;;
10142;SDS011;5112;54.088;13.446;2024-03-02T00:31:09;54.13;;;32.23;;
10142;SDS011;5112;54.088;13.446;2024-03-02T00:41:19;47.60;;;30.97;;
10142;SDS011;5112;54.088;13.446;2024-03-02T00:51:24;46.00;;;29.80;;
10142;SDS011;5112;54.088;13.446;2024-03-02T01:01:28;50.17;;;31.90;;
10142;SDS011;5112;54.088;13.446;2024-03-02T01:11:30;51.97;;;39.45;;
10142;SDS011;5112;54.088;13.446;2024-03-02T01:21:33;47.00;;;32.00;;
10142;SDS011;5112;54.088;13.446;2024-03-02T01:31:34;43.27;;;29.30;;
10142;SDS011;5112;54.088;13.446;2024-03-02T01:41:37;46.43;;;31.80;;
10142;SDS011;5112;54.088;13.446;2024-03-02T01:51:39;42.40;;;30.07;;
10142;SDS011;5112;54.088;13.446;2024-03-02T02:01:42;38.77;;;27.77;;
10142;SDS011;5112;54.088;13.446;2024-03-02T02:11:44;41.97;;;29.40;;
10142;SDS011;5112;54.088;13.446;2024-03-02T02:21:47;42.40;;;29.30;;
10142;SDS011;5112;54.088;13.446;2024-03-02T02:31:48;51.77;;;34.20;;
10142;SDS011;5112;54.088;13.446;2024-03-02T02:41:52;56.70;;;37.43;;
10142;SDS011;5112;54.088;13.446;2024-03-02T02:51:53;58.47;;;38.57;;
10142;SDS011;5112;54.088;13.446;2024-03-02T03:01:56;59.57;;;37.93;;
10142;SDS011;5112;54.088;13.446;2024-03-02T03:11:58;64.97;;;40.20;;
10142;SDS011;5112;54.088;13.446;2024-03-02T03:22:00;56.53;;;37.90;;
10142;SDS011;5112;54.088;13.446;2024-03-02T03:32:03;62.40;;;40.13;;
10142;SDS011;5112;54.088;13.446;2024-03-02T03:42:08;71.67;;;45.03;;
10142;SDS011;5112;54.088;13.446;2024-03-02T03:52:09;67.90;;;44.80;;
10142;SDS011;5112;54.088;13.446;2024-03-02T04:02:12;67.70;;;44.70;;
10142;SDS011;5112;54.088;13.446;2024-03-02T04:12:14;66.87;;;43.53;;
10142;SDS011;5112;54.088;13.446;2024-03-02T04:22:17;67.00;;;44.20;;
10142;SDS011;5112;54.088;13.446;2024-03-02T04:32:18;67.37;;;45.43;;
10142;SDS011;5112;54.088;13.446;2024-03-02T04:42:22;69.83;;;45.93;;
10142;SDS011;5112;54.088;13.446;2024-03-02T04:52:24;70.93;;;46.67;;
10142;SDS011;5112;54.088;13.446;2024-03-02T05:02:27;73.50;;;51.10;;
10142;SDS011;5112;54.088;13.446;2024-03-02T05:12:29;79.47;;;50.23;;
10142;SDS011;5112;54.088;13.446;2024-03-02T05:22:56;69.53;;;48.13;;
10142;SDS011;5112;54.088;13.446;2024-03-02T05:32:58;88.10;;;68.10;;
10142;SDS011;5112;54.088;13.446;2024-03-02T05:43:01;79.20;;;52.90;;
10142;SDS011;5112;54.088;13.446;2024-03-02T05:53:03;82.30;;;54.97;;
10142;SDS011;5112;54.088;13.446;2024-03-02T06:03:06;72.80;;;50.87;;
10142;SDS011;5112;54.088;13.446;2024-03-02T06:13:09;70.50;;;49.63;;
10142;SDS011;5112;54.088;13.446;2024-03-02T06:23:12;82.17;;;55.03;;
10142;SDS011;5112;54.088;13.446;2024-03-02T06:33:13;81.57;;;53.43;;
10142;SDS011;5112;54.088;13.446;2024-03-02T06:43:16;84.27;;;56.37;;
10142;SDS011;5112;54.088;13.446;2024-03-02T06:53:18;90.03;;;58.43;;
10142;SDS011;5112;54.088;13.446;2024-03-02T07:03:21;88.23;;;57.10;;
10142;SDS011;5112;54.088;13.446;2024-03-02T07:13:22;79.87;;;53.87;;
10142;SDS011;5112;54.088;13.446;2024-03-02T07:23:25;85.20;;;55.40;;
10142;SDS011;5112;54.088;13.446;2024-03-02T07:33:28;86.23;;;53.67;;
10142;SDS011;5112;54.088;13.446;2024-03-02T07:43:31;85.00;;;52.23;;
10142;SDS011;5112;54.088;13.446;2024-03-02T07:53:33;82.47;;;51.10;;
10142;SDS011;5112;54.088;13.446;2024-03-02T08:03:36;71.27;;;48.13;;
10142;SDS011;5112;54.088;13.446;2024-03-02T08:13:38;69.73;;;46.43;;
10142;SDS011;5112;54.088;13.446;2024-03-02T08:23:41;65.27;;;44.20;;
10142;SDS011;5112;54.088;13.446;2024-03-02T08:33:43;57.87;;;42.30;;
10142;SDS011;5112;54.088;13.446;2024-03-02T08:43:46;56.07;;;40.80;;
10142;SDS011;5112;54.088;13.446;2024-03-02T08:53:48;53.60;;;40.17;;
10142;SDS011;5112;54.088;13.446;2024-03-02T09:03:51;54.03;;;39.33;;
10142;SDS011;5112;54.088;13.446;2024-03-02T09:13:52;55.30;;;40.57;;
10142;SDS011;5112;54.088;13.446;2024-03-02T09:23:57;54.20;;;40.83;;
10142;SDS011;5112;54.088;13.446;2024-03-02T09:33:58;53.30;;;38.13;;
10142;SDS011;5112;54.088;13.446;2024-03-02T09:44:02;49.53;;;36.60;;
10142;SDS011;5112;54.088;13.446;2024-03-02T09:54:03;49.67;;;37.77;;
10142;SDS011;5112;54.088;13.446;2024-03-02T10:04:09;53.47;;;38.00;;
10142;SDS011;5112;54.088;13.446;2024-03-02T10:14:12;51.83;;;37.17;;
10142;SDS011;5112;54.088;13.446;2024-03-02T10:24:15;47.30;;;36.23;;
10142;SDS011;5112;54.088;13.446;2024-03-02T10:34:17;56.10;;;39.90;;
10142;SDS011;5112;54.088;13.446;2024-03-02T10:44:22;57.83;;;40.57;;
10142;SDS011;5112;54.088;13.446;2024-03-02T10:54:24;50.47;;;37.83;;
10142;SDS011;5112;54.088;13.446;2024-03-02T11:04:30;59.30;;;38.37;;
10142;SDS011;5112;54.088;13.446;2024-03-02T11:14:32;59.70;;;39.43;;
10142;SDS011;5112;54.088;13.446;2024-03-02T11:24:36;53.70;;;36.57;;
10142;SDS011;5112;54.088;13.446;2024-03-02T11:34:38;63.50;;;40.27;;
10142;SDS011;5112;54.088;13.446;2024-03-02T11:44:46;64.10;;;40.67;;
10142;SDS011;5112;54.088;13.446;2024-03-02T11:54:49;56.20;;;39.20;;
10142;SDS011;5112;54.088;13.446;2024-03-02T12:04:52;60.30;;;39.87;;
10142;SDS011;5112;54.088;13.446;2024-03-02T12:14:54;62.63;;;41.83;;
10142;SDS011;5112;54.088;13.446;2024-03-02T12:24:57;64.57;;;42.07;;
10142;SDS011;5112;54.088;13.446;2024-03-02T12:34:59;64.53;;;42.37;;
10142;SDS011;5112;54.088;13.446;2024-03-02T12:45:02;63.27;;;42.13;;
10142;SDS011;5112;54.088;13.446;2024-03-02T12:55:05;70.27;;;44.27;;
10142;SDS011;5112;54.088;13.446;2024-03-02T13:05:08;70.40;;;46.47;;
10142;SDS011;5112;54.088;13.446;2024-03-02T13:15:11;70.80;;;46.23;;
10142;SDS011;5112;54.088;13.446;2024-03-02T13:25:13;68.17;;;46.53;;
10142;SDS011;5112;54.088;13.446;2024-03-02T13:35:15;61.70;;;40.00;;
10142;SDS011;5112;54.088;13.446;2024-03-02T13:45:18;58.23;;;39.13;;
10142;SDS011;5112;54.088;13.446;2024-03-02T13:55:20;52.17;;;37.40;;
10142;SDS011;5112;54.088;13.446;2024-03-02T14:05:23;47.63;;;33.73;;
10142;SDS011;5112;54.088;13.446;2024-03-02T14:15:24;40.73;;;30.43;;
10142;SDS011;5112;54.088;13.446;2024-03-02T14:25:27;39.90;;;29.50;;
10142;SDS011;5112;54.088;13.446;2024-03-02T14:35:31;38.60;;;29.37;;
10142;SDS011;5112;54.088;13.446;2024-03-02T14:45:34;33.30;;;26.60;;
10142;SDS011;5112;54.088;13.446;2024-03-02T14:55:35;38.53;;;28.53;;
10142;SDS011;5112;54.088;13.446;2024-03-02T15:05:38;36.73;;;26.53;;
10142;SDS011;5112;54.088;13.446;2024-03-02T15:15:40;34.13;;;26.03;;
10142;SDS011;5112;54.088;13.446;2024-03-02T15:25:43;29.73;;;23.17;;
10142;SDS011;5112;54.088;13.446;2024-03-02T15:35:45;31.87;;;24.67;;
10142;SDS011;5112;54.088;13.446;2024-03-02T15:45:48;31.03;;;25.17;;
10142;SDS011;5112;54.088;13.446;2024-03-02T15:55:49;31.63;;;23.57;;
10142;SDS011;5112;54.088;13.446;2024-03-02T16:05:53;32.70;;;25.80;;
10142;SDS011;5112;54.088;13.446;2024-03-02T16:15:54;30.47;;;24.43;;
10142;SDS011;5112;54.088;13.446;2024-03-02T16:25:57;25.10;;;21.33;;
10142;SDS011;5112;54.088;13.446;2024-03-02T16:35:59;29.00;;;23.60;;
10142;SDS011;5112;54.088;13.446;2024-03-02T16:46:02;34.00;;;26.70;;
10142;SDS011;5112;54.088;13.446;2024-03-02T16:56:05;31.53;;;26.33;;
10142;SDS011;5112;54.088;13.446;2024-03-02T17:06:09;33.20;;;26.03;;
10142;SDS011;5112;54.088;13.446;2024-03-02T17:16:10;31.07;;;25.43;;
10142;SDS011;5112;54.088;13.446;2024-03-02T17:26:14;30.60;;;24.17;;
10142;SDS011;5112;54.088;13.446;2024-03-02T17:36:16;33.07;;;24.77;;
10142;SDS011;5112;54.088;13.446;2024-03-02T17:46:19;34.70;;;27.33;;
10142;SDS011;5112;54.088;13.446;2024-03-02T17:56:20;28.67;;;25.77;;
10142;SDS011;5112;54.088;13.446;2024-03-02T18:06:23;31.67;;;25.83;;
10142;SDS011;5112;54.088;13.446;2024-03-02T18:16:25;35.93;;;28.13;;
10142;SDS011;5112;54.088;13.446;2024-03-02T18:26:28;38.27;;;29.77;;
10142;SDS011;5112;54.088;13.446;2024-03-02T18:36:33;39.23;;;30.00;;
10142;SDS011;5112;54.088;13.446;2024-03-02T18:46:36;41.47;;;29.60;;
10142;SDS011;5112;54.088;13.446;2024-03-02T18:56:37;36.43;;;28.83;;
10142;SDS011;5112;54.088;13.446;2024-03-02T19:06:40;35.87;;;28.27;;
10142;SDS011;5112;54.088;13.446;2024-03-02T19:16:42;38.43;;;30.23;;
10142;SDS011;5112;54.088;13.446;2024-03-02T19:26:45;41.00;;;32.13;;
10142;SDS011;5112;54.088;13.446;2024-03-02T19:36:47;40.43;;;32.03;;
10142;SDS011;5112;54.088;13.446;2024-03-02T19:46:50;38.10;;;29.37;;
10142;SDS011;5112;54.088;13.446;2024-03-02T19:56:53;39.97;;;30.50;;
10142;SDS011;5112;54.088;13.446;2024-03-02T20:06:56;49.60;;;37.67;;
10142;SDS011;5112;54.088;13.446;2024-03-02T20:16:58;42.47;;;33.30;;
10142;SDS011;5112;54.088;13.446;2024-03-02T20:27:01;46.03;;;33.90;;
10142;SDS011;5112;54.088;13.446;2024-03-02T20:37:04;47.70;;;35.33;;
10142;SDS011;5112;54.088;13.446;2024-03-02T20:47:07;43.50;;;32.27;;
10142;SDS011;5112;54.088;13.446;2024-03-02T20:57:09;50.10;;;36.20;;
10142;SDS011;5112;54.088;13.446;2024-03-02T21:07:13;52.90;;;38.07;;
10142;SDS011;5112;54.088;13.446;2024-03-02T21:17:15;61.17;;;41.73;;
10142;SDS011;5112;54.088;13.446;2024-03-02T21:27:18;53.87;;;39.27;;
10142;SDS011;5112;54.088;13.446;2024-03-02T21:37:20;66.40;;;43.50;;
10142;SDS011;5112;54.088;13.446;2024-03-02T21:47:23;68.00;;;47.03;;
10142;SDS011;5112;54.088;13.446;2024-03-02T21:57:24;63.27;;;45.50;;
10142;SDS011;5112;54.088;13.446;2024-03-02T22:07:27;71.65;;;58.28;;
10142;SDS011;5112;54.088;13.446;2024-03-02T22:17:29;64.20;;;46.17;;
10142;SDS011;5112;54.088;13.446;2024-03-02T22:27:32;67.60;;;46.13;;
10142;SDS011;5112;54.088;13.446;2024-03-02T22:37:36;65.13;;;46.97;;
10142;SDS011;5112;54.088;13.446;2024-03-02T22:47:39;64.93;;;45.23;;
10142;SDS011;5112;54.088;13.446;2024-03-02T22:57:40;60.07;;;44.77;;
10142;SDS011;5112;54.088;13.446;2024-03-02T23:07:43;60.90;;;43.97;;
10142;SDS011;5112;54.088;13.446;2024-03-02T23:17:45;61.03;;;44.00;;
10142;SDS011;5112;54.088;13.446;2024-03-02T23:27:48;59.37;;;42.83;;
10142;SDS011;5112;54.088;13.446;2024-03-02T23:37:49;62.30;;;44.53;;
10142;SDS011;5112;54.088;13.446;2024-03-02T23:47:54;59.78;;;44.25;;
10142;SDS011;5112;54.088;13.446;2024-03-02T23:57:55;56.43;;;42.17;;
